Sign in:
Email
 Password  save:
  
 Company Reports 
 
   
My Recent Searches
  Help
 
   
 
 
Get Institutions for : 
Liberty Media Corporation (LMCA)    
$140.10 0.00 (0.00%) as of 4:30 Wed 7/16


Download
     
Institutional Holders
Viewing Quarter :
  
Total Institutions: 380    5
Total shares held : 
84,858,346  
% of shares held : 
70.42%  
Changes In:
New/increased positions vs   
old/decreased positions : 
  3  
Amount of shares held : 
562,285  
% of shares held change : 
  0.47%  
Quarter Price vs. Current Price:
Last Quarter's Starting Price
$144.44  
Last Quarter's Ending Price : 
$130.73  
Last Quarter's Average Price
$134.13  
Change from last quarter's     
avg. price to the last closing  : 
5.97 (4.45%)  




 
All Securities Held :
Positions
     Shares
% Of
Total Shares
New Positions :
49
 1,298,624
 1.53%
 
Increased Positions :
131
 9,414,964
 11.09%
 
Unchanged Positions :
77
 8,326,950
 9.81%
 
Decreased Positions :
123
-5,617,523
-6.62%
 
Closed Positions :
54
-4,533,780
-5.34%
 
Guru Positions :
2
6,395,026
 7.54%
 
View holdings for period: 
6-30-2012 View holdings for period: 
9-30-2012 View holdings for period: 
12-31-2012 View holdings for period: 
3-31-2013 View holdings for period: 
6-30-2013 View holdings for period: 
9-30-2013 View holdings for period: 
12-31-2013 View holdings for the current period

  Page 1 of 1  
Free Registration Required For Full Results


            Institution Name
Portfolio
Position
New/Closed
Position

Filing Date

Total Shares

Total Value

Change in Shares

File
   BERKSHIRE HATHAWAY INC -- Notable Guru -- 20 - 2014-03-31 5,300,000 $692,869,000 0
   FMR LLC 229 - 2014-03-31 5,136,372 $671,478,000 267,304
   D E SHAW & CO INC 3 - 2014-03-31 4,687,534 $612,801,000 1,574,301
   HORIZON KINETICS LLC 2 - 2014-03-31 4,656,039 $608,684,000 17,224
   CLEARBRIDGE ADVISORS LLC 36 - 2014-03-31 4,015,649 $524,966,000 212,704
   CAPITAL WORLD INVESTORS 140 - 2014-03-31 4,014,651 $524,835,000 -130,000
   VANGUARD GROUP INC 555 - 2014-03-31 3,259,580 $426,125,000 67,686
   BLACKROCK INSTITUTIONAL TRUST COMPANY 355 - 2014-03-31 2,354,088 $307,750,000 9,860
   ROBECO INVESTMENT MANAGEMENT INC 54 - 2014-03-31 2,309,532 $301,926,000 241,506
   PRINCIPAL FINANCIAL GROUP INC 18 - 2014-03-31 2,264,870 $296,087,000 91,501
   JANA PARTNERS LLC 11 - 2014-03-31 2,245,695 $293,580,000 1,714,719
   STATE STREET CORP 507 - 2014-03-31 2,000,113 $261,467,000 -22,293
   FPR PARTNERS LLC 7 - 2014-03-31 1,584,401 $207,129,000 720,813
   SEIZERT CAPITAL PARTNERS LLC 1 - 2014-03-31 1,583,788 $207,049,000 166,211
   GOLDMAN SACHS GROUP INC/ 266 - 2014-03-31 1,543,303 $201,756,000 1,674
   BLACKROCK ADVISORS LLC 130 - 2014-03-31 1,485,001 $194,134,000 498,755
   SENATOR INVESTMENT GROUP LP 23 - 2014-03-31 1,250,000 $163,412,000 250,000
   INVESCO LTD 356 - 2014-03-31 1,190,020 $155,571,000 -26,813
   WEITZ WALLACE R & CO -- Notable Guru -- 6 - 2014-03-31 1,095,026 $143,153,000 515,296
   MUNDER CAPITAL MANAGEMENT 15 - 2014-03-31 1,001,488 $130,925,000 6,761
   BLACKROCK GROUP LTD 278 - 2014-03-31 999,651 $130,683,000 216,658
   KENSICO CAPITAL MANAGEMENT CORP 10 - 2014-03-31 964,000 $126,024,000 0
   FRANKLIN RESOURCES INC 325 - 2014-03-31 918,760 $120,108,000 110,856
   TIGER GLOBAL MANAGEMENT LLC 21 - 2014-03-31 905,000 $118,311,000 -9,410
   ALLIANCEBERNSTEIN L.P. 258 - 2014-03-31 795,467 $103,991,000 -1,331,218
   BAMCO INC /NY/ 81 - 2014-03-31 733,452 $95,884,000 -387,615
   GAMCO INVESTORS INC ET AL 52 - 2014-03-31 732,024 $95,697,000 -9,455
   BLACKROCK FUND ADVISORS 918 - 2014-03-31 700,755 $91,610,000 10,953
   DIMENSIONAL FUND ADVISORS INC 334 - 2014-03-31 672,085 $87,847,000 41,909
   NORTHERN TRUST CORP 565 - 2014-03-31 604,836 $79,071,000 -59,103
   FIRST MANHATTAN CO 46 - 2014-03-31 579,087 $75,704,000 -578
   WELLS FARGO & CO/MN 570 - 2014-03-31 577,171 $75,446,000 85,261
   GABELLI FUNDS LLC 64 - 2014-03-31 565,000 $73,862,000 31,900
   DEUTSCHE BANK AG 423 - 2014-03-31 536,412 $70,123,000 32,520
   GEODE CAPITAL MANAGEMENT LLC 383 - 2014-03-31 533,260 $69,700,000 12,220
   ARROWSTREET CAPITAL LIMITED PARTNERSHIP 62 - 2014-03-31 510,805 $66,778,000 -208,304
   JANUS CAPITAL MANAGEMENT LLC 354 - 2014-03-31 509,711 $66,635,000 87,499
   EMPYREAN CAPITAL PARTNERS LP 4 - 2014-03-31 500,000 $65,365,000 0
   CLOUGH CAPITAL PARTNERS L P 5 - 2014-03-31 487,587 $63,742,000 134,800
   J P MORGAN CHASE & CO 685 - 2014-03-31 472,243 $61,736,000 41,749
   BANK OF AMERICA CORP /DE/ 566 - 2014-03-31 457,481 $59,807,000 -28,008
   STATE OF NEW JERSEY COMMON PENSION FUND A 99 - 2014-03-31 430,000 $56,214,000 -10,000
   RENAISSANCE TECHNOLOGIES LLC 143 - 2014-03-31 425,758 $55,659,000 23,402
   MARKSTON INTERNATIONAL LLC 1 - 2014-03-31 417,158 $54,535,000 -1,000
   BANK OF NEW YORK MELLON CORP 851 - 2014-03-31 406,103 $53,090,000 -12,492
   LEGAL & GENERAL GROUP PLC 373 - 2014-03-31 363,237 $47,486,000 -36,921
   TIAA CREF INVESTMENT MANAGEMENT LLC 496 - 2014-03-31 362,781 $47,426,000 -97,993
   MORGAN STANLEY 780 - 2014-03-31 354,700 $46,369,000 -178,216
   MITSUBISHI UFJ TRUST & BANKING CORP 227 - 2014-03-31 343,393 $44,892,000 343,393
   S&CO INC 1 - 2014-03-31 340,838 $44,558,000 200,580
   UNITED STATES STEEL & CARNEGIE PENSION FD 46 - 2014-03-31 328,107 $42,893,000 0
   CREDIT SUISSE/ 434 - 2014-03-31 319,016 $41,705,000 -35,748
   MIURA GLOBAL MANAGEMENT LLC 10 - 2014-03-31 313,000 $40,919,000 23,000
   P SCHOENFELD ASSET MANAGEMENT LLC/NY 5 - 2014-03-31 308,187 $40,289,000 258,187
   KINGSTOWN CAPITAL MANAGEMENT L.P. 11 - 2014-03-31 300,000 $39,219,000 50,000
   KING LUTHER CAPITAL MANAGEMENT CORP 97 - 2014-03-31 291,298 $38,081,000 9,544
   SUMITOMO MITSUI TRUST HOLDINGS, INC. 289 - 2014-03-31 290,429 $37,968,000 10,883
   SG AMERICAS SECURITIES LLC 133 - 2014-03-31 290,155 $37,932,000 -1,932
   PRICE T ROWE ASSOCIATES INC /MD/ 937 - 2014-03-31 286,743 $37,486,000 4,228
   CITADEL ADVISORS LLC 351 - 2014-03-31 278,416 $36,397,000 -39,449
   ASCEND CAPITAL LLC 40 *New 2014-03-31 275,000 $35,951,000 275,000
   LOOMIS SAYLES & CO L P 175 - 2014-03-31 273,073 $35,699,000 61,514
   CALIFORNIA PUBLIC EMPLOYEES RETIREMENT SYSTEM 382 - 2014-03-31 285,023 $35,223,000 0
   BNP PARIBAS ARBITRAGE SA 130 - 2014-03-31 269,592 $34,969,000 -53,393
   COMMERZBANK AKTIENGESELLSCHAFT 88 - 2014-03-31 257,566 $33,672,000 132,004
   GUGGENHEIM CAPITAL LLC 321 - 2014-03-31 254,839 $33,315,000 5,279
   PUBLIC EMPLOYEES RETIREMENT SYSTEM OF OHIO 113 - 2014-03-31 254,178 $33,229,000 19,032
   ROBECO INSTITUTIONAL ASSET MANAGEMENT B.V. 105 - 2014-03-31 244,289 $31,936,000 48,494
   UBS GLOBAL ASSET MANAGEMENT AMERICAS INC 521 - 2014-03-31 235,153 $30,741,000 10,976
   APG ALL PENSIONS GROUP 269 - 2014-03-31 229,820 $30,044,000 16,632
   VISIUM ASSET MANAGEMENT LP 40 - 2014-03-31 222,059 $29,031,000 21,126
   CANADA PENSION PLAN INVESTMENT BOARD 182 - 2014-03-31 220,000 $28,761,000 0
   MANAGED ACCOUNT ADVISORS LLC 505 - 2014-03-31 216,986 $28,367,000 -63,329
   THIRD AVENUE MANAGEMENT LLC 60 - 2014-03-31 207,489 $27,125,000 -95,470
   HSBC HOLDINGS PLC 289 - 2014-03-31 202,545 $26,468,000 -26,376
   CREDIT AGRICOLE S A 239 - 2014-03-31 200,873 $26,260,000 107,393
   DORSAL CAPITAL MANAGEMENT, LLC 10 - 2014-03-31 180,000 $23,531,000 0
   MARKEL CORP 41 - 2014-03-31 175,000 $22,878,000 41,000
   CALIFORNIA STATE TEACHERS RETIREMENT SYSTEM 328 - 2014-03-31 174,144 $22,766,000 900
   GRUSS ASSET MGMT LP 14 *New 2014-03-31 170,647 $22,309,000 170,647
   Napier Park Global Capital LLC 3 - 2014-03-31 164,961 $21,565,000 -94,326
   ARROWPOINT ASSET MANAGEMENT, LLC 52 - 2014-03-31 156,854 $20,506,000 98,254
   ARNHOLD & S BLEICHROEDER ADVISERS LLC 129 - 2014-03-31 156,391 $20,445,000 0
   STATE BOARD OF ADMINISTRATION OF FLORIDA RETIREMEN 325 - 2014-03-31 150,448 $19,668,000 -26,734
   BLACKROCK INVESTMENT MANAGEMENT LLC 532 - 2014-03-31 147,414 $19,271,000 44,321
   MIZUHO TRUST & BANKING CO., LTD. 322 - 2014-03-31 145,165 $18,977,000 10,121
   MARSHALL WACE LLP 85 *New 2014-03-31 144,658 $18,911,000 144,658
   SUSQUEHANNA INTERNATIONAL GROUP, LLP 320 - 2014-03-31 134,481 $17,581,000 49,582
   TWO SIGMA INVESTMENTS LLC 296 - 2014-03-31 133,665 $17,474,000 131,410
   WALLACE CAPITAL MANAGEMENT INC. 9 - 2014-03-31 129,683 $16,953,000 995
   MAGNETAR FINANCIAL LLC 34 - 2014-03-31 123,159 $16,101,000 123,159
   KIRR MARBACH & CO LLC /IN/ 14 - 2014-03-31 122,977 $16,077,000 -1,047
   AQR CAPITAL MANAGEMENT LLC 418 - 2014-03-31 115,657 $15,120,000 -66,752
   WILLIAMS JONES & ASSOCIATES LLC 81 - 2014-03-31 113,838 $14,882,000 57,912
   UBS AG 778 - 2014-03-31 112,599 $14,720,000 10,704
   BLACKROCK JAPAN CO LTD 353 - 2014-03-31 110,692 $14,471,000 3,128
   NATIONWIDE FUND ADVISORS 368 - 2014-03-31 110,600 $14,459,000 -2,480
   SAC CAPITAL ADVISORS LP 310 - 2014-03-31 109,322 $14,292,000 -95,895
   NOMURA HOLDINGS INC 135 - 2014-03-31 107,336 $14,056,000 -7,927
   MILLENNIUM MANAGEMENT LLC 546 - 2014-03-31 107,436 $14,045,000 -7,424

  100 Records found
  1    
  Page 1 of 1
Free Registration Required For Full Results